SWR6DK EBBR-LSGG
Flight info
| Callsign | SWR6DK |
|---|---|
| Flight time | 0h 59m |
| Altitude | 31000 |
| Route | ROUSY DCT GTQ DCT POGOL DCT LASAT DCT MOROK Z24 AKITO |
| Aircraft | A20N/M-SDE2E3FGHIRWXY/LB1 |
Departure
| Time | 2026-05-07 19:42 |
|---|---|
| Airport | Brussels Airport (EBBR) |
Arrival
| Time | 2026-05-07 20:41 |
|---|---|
| Airport | Geneva International Airport (LSGG) |
| Time | Latitude | Longitude | Altitude | Speed | Heading |
|---|---|---|---|---|---|
| 2026-05-07 18:46 | 50.90368 | 4.48877 | 193 ft | 0 kts | 335° |
| 2026-05-07 19:23 | 50.90364 | 4.48880 | 193 ft | 2 kts | 335° |
| 2026-05-07 19:23 | 50.90351 | 4.48890 | 193 ft | 2 kts | 335° |
| 2026-05-07 19:23 | 50.90337 | 4.48899 | 193 ft | 2 kts | 335° |
| 2026-05-07 19:24 | 50.90324 | 4.48909 | 193 ft | 2 kts | 335° |
| 2026-05-07 19:24 | 50.90310 | 4.48919 | 193 ft | 2 kts | 349° |
| 2026-05-07 19:24 | 50.90295 | 4.48918 | 193 ft | 2 kts | 20° |
| 2026-05-07 19:24 | 50.90282 | 4.48905 | 193 ft | 2 kts | 49° |
| 2026-05-07 19:25 | 50.90277 | 4.48894 | 193 ft | 1 kts | 66° |
| 2026-05-07 19:25 | 50.90275 | 4.48885 | 193 ft | 0 kts | 65° |
| 2026-05-07 19:28 | 50.90279 | 4.48898 | 193 ft | 2 kts | 65° |
| 2026-05-07 19:28 | 50.90292 | 4.48943 | 193 ft | 6 kts | 65° |
| 2026-05-07 19:28 | 50.90317 | 4.49027 | 193 ft | 9 kts | 64° |
| 2026-05-07 19:28 | 50.90334 | 4.49085 | 193 ft | 0 kts | 64° |
| 2026-05-07 19:29 | 50.90342 | 4.49112 | 193 ft | 5 kts | 65° |
| 2026-05-07 19:29 | 50.90365 | 4.49196 | 193 ft | 10 kts | 65° |
| 2026-05-07 19:29 | 50.90401 | 4.49322 | 193 ft | 14 kts | 65° |
| 2026-05-07 19:30 | 50.90455 | 4.49465 | 193 ft | 15 kts | 31° |
| 2026-05-07 19:30 | 50.90557 | 4.49516 | 193 ft | 15 kts | 13° |
| 2026-05-07 19:30 | 50.90663 | 4.49560 | 193 ft | 15 kts | 14° |
| 2026-05-07 19:30 | 50.90720 | 4.49584 | 193 ft | 0 kts | 14° |
| 2026-05-07 19:35 | 50.90725 | 4.49586 | 193 ft | 0 kts | 14° |
| 2026-05-07 19:38 | 50.90726 | 4.49586 | 193 ft | 0 kts | 14° |
| 2026-05-07 19:38 | 50.90763 | 4.49602 | 193 ft | 10 kts | 14° |
| 2026-05-07 19:38 | 50.90856 | 4.49639 | 193 ft | 14 kts | 14° |
| 2026-05-07 19:38 | 50.90919 | 4.49753 | 193 ft | 13 kts | 65° |
| 2026-05-07 19:39 | 50.90955 | 4.49828 | 193 ft | 5 kts | 39° |
| 2026-05-07 19:39 | 50.90988 | 4.49869 | 193 ft | 7 kts | 38° |
| 2026-05-07 19:39 | 50.91039 | 4.49912 | 193 ft | 5 kts | 21° |
| 2026-05-07 19:39 | 50.91042 | 4.49914 | 193 ft | 0 kts | 21° |
| 2026-05-07 19:40 | 50.91048 | 4.49918 | 193 ft | 3 kts | 21° |
| 2026-05-07 19:40 | 50.91092 | 4.49944 | 193 ft | 9 kts | 9° |
| 2026-05-07 19:40 | 50.91138 | 4.49876 | 193 ft | 9 kts | 249° |
| 2026-05-07 19:41 | 50.91126 | 4.49839 | 193 ft | 0 kts | 244° |
| 2026-05-07 19:41 | 50.91045 | 4.49560 | 193 ft | 66 kts | 245° |
| 2026-05-07 19:41 | 50.90757 | 4.48564 | 193 ft | 132 kts | 245° |
| 2026-05-07 19:41 | 50.90303 | 4.46983 | 304 ft | 174 kts | 245° |
| 2026-05-07 19:42 | 50.89798 | 4.45220 | 892 ft | 180 kts | 245° |
| 2026-05-07 19:42 | 50.89280 | 4.43416 | 1620 ft | 181 kts | 244° |
| 2026-05-07 19:42 | 50.88549 | 4.41821 | 2193 ft | 185 kts | 209° |
| 2026-05-07 19:42 | 50.87307 | 4.41475 | 2596 ft | 192 kts | 161° |
| 2026-05-07 19:43 | 50.86245 | 4.42744 | 3013 ft | 202 kts | 122° |
| 2026-05-07 19:43 | 50.85454 | 4.44698 | 3485 ft | 218 kts | 123° |
| 2026-05-07 19:43 | 50.84502 | 4.46710 | 3872 ft | 241 kts | 127° |
| 2026-05-07 19:43 | 50.83406 | 4.48834 | 4408 ft | 258 kts | 128° |
| 2026-05-07 19:44 | 50.82232 | 4.51022 | 5194 ft | 265 kts | 129° |
| 2026-05-07 19:44 | 50.81025 | 4.53209 | 6044 ft | 268 kts | 130° |
| 2026-05-07 19:44 | 50.79777 | 4.55452 | 6672 ft | 270 kts | 130° |
| 2026-05-07 19:44 | 50.78525 | 4.57702 | 7299 ft | 277 kts | 130° |
| 2026-05-07 19:45 | 50.77245 | 4.60002 | 8223 ft | 278 kts | 132° |
| 2026-05-07 19:45 | 50.75793 | 4.62105 | 9045 ft | 281 kts | 141° |
| 2026-05-07 19:45 | 50.74241 | 4.63975 | 9794 ft | 286 kts | 143° |
| 2026-05-07 19:45 | 50.72641 | 4.65862 | 10508 ft | 292 kts | 144° |
| 2026-05-07 19:46 | 50.70984 | 4.67835 | 10936 ft | 308 kts | 143° |
| 2026-05-07 19:46 | 50.69207 | 4.69981 | 11297 ft | 326 kts | 143° |
| 2026-05-07 19:46 | 50.67371 | 4.72218 | 11633 ft | 344 kts | 143° |
| 2026-05-07 19:46 | 50.65595 | 4.74394 | 11973 ft | 358 kts | 143° |
| 2026-05-07 19:47 | 50.63582 | 4.76869 | 12599 ft | 364 kts | 143° |
| 2026-05-07 19:47 | 50.61569 | 4.79347 | 13322 ft | 367 kts | 143° |
| 2026-05-07 19:47 | 50.59547 | 4.81837 | 14016 ft | 371 kts | 143° |
| 2026-05-07 19:47 | 50.57563 | 4.84276 | 14667 ft | 375 kts | 143° |
| 2026-05-07 19:48 | 50.55445 | 4.86877 | 15324 ft | 379 kts | 143° |
| 2026-05-07 19:48 | 50.53353 | 4.89444 | 15958 ft | 382 kts | 143° |
| 2026-05-07 19:48 | 50.51265 | 4.92005 | 16571 ft | 386 kts | 143° |
| 2026-05-07 19:48 | 50.49149 | 4.94597 | 17161 ft | 390 kts | 143° |
| 2026-05-07 19:49 | 50.46993 | 4.97235 | 17740 ft | 394 kts | 143° |
| 2026-05-07 19:49 | 50.44850 | 4.99853 | 18302 ft | 397 kts | 143° |
| 2026-05-07 19:49 | 50.42644 | 5.02545 | 18845 ft | 401 kts | 143° |
| 2026-05-07 19:49 | 50.40441 | 5.05231 | 19393 ft | 405 kts | 143° |
| 2026-05-07 19:50 | 50.38207 | 5.07951 | 19951 ft | 408 kts | 143° |
| 2026-05-07 19:50 | 50.35954 | 5.10692 | 20501 ft | 410 kts | 143° |
| 2026-05-07 19:50 | 50.33706 | 5.13422 | 21024 ft | 414 kts | 143° |
| 2026-05-07 19:50 | 50.31410 | 5.16207 | 21548 ft | 417 kts | 143° |
| 2026-05-07 19:51 | 50.29104 | 5.19000 | 22061 ft | 420 kts | 143° |
| 2026-05-07 19:51 | 50.26798 | 5.21791 | 22555 ft | 423 kts | 143° |
| 2026-05-07 19:51 | 50.24456 | 5.24622 | 23041 ft | 427 kts | 143° |
| 2026-05-07 19:51 | 50.22103 | 5.27462 | 23517 ft | 430 kts | 143° |
| 2026-05-07 19:52 | 50.19707 | 5.30349 | 24003 ft | 433 kts | 143° |
| 2026-05-07 19:52 | 50.17340 | 5.33199 | 24471 ft | 435 kts | 143° |
| 2026-05-07 19:52 | 50.14950 | 5.36071 | 24915 ft | 438 kts | 143° |
| 2026-05-07 19:52 | 50.12519 | 5.38990 | 25350 ft | 441 kts | 143° |
| 2026-05-07 19:53 | 50.10086 | 5.41908 | 25767 ft | 444 kts | 143° |
| 2026-05-07 19:53 | 50.07637 | 5.44842 | 26270 ft | 444 kts | 143° |
| 2026-05-07 19:53 | 50.05175 | 5.47788 | 26869 ft | 442 kts | 143° |
| 2026-05-07 19:53 | 50.02755 | 5.50681 | 27435 ft | 440 kts | 143° |
| 2026-05-07 19:54 | 50.00323 | 5.53582 | 27944 ft | 440 kts | 144° |
| 2026-05-07 19:54 | 49.97874 | 5.56500 | 28422 ft | 439 kts | 144° |
| 2026-05-07 19:54 | 49.95446 | 5.59390 | 28883 ft | 439 kts | 144° |
| 2026-05-07 19:54 | 49.93002 | 5.62294 | 29335 ft | 439 kts | 144° |
| 2026-05-07 19:55 | 49.90578 | 5.65169 | 29712 ft | 439 kts | 144° |
| 2026-05-07 19:55 | 49.88137 | 5.68062 | 30027 ft | 441 kts | 144° |
| 2026-05-07 19:55 | 49.85705 | 5.70939 | 30337 ft | 443 kts | 144° |
| 2026-05-07 19:55 | 49.83222 | 5.73874 | 30650 ft | 444 kts | 144° |
| 2026-05-07 19:56 | 49.80726 | 5.76821 | 30945 ft | 445 kts | 144° |
| 2026-05-07 19:56 | 49.78245 | 5.79746 | 31021 ft | 447 kts | 144° |
| 2026-05-07 19:56 | 49.73403 | 5.85444 | 31032 ft | 447 kts | 144° |
| 2026-05-07 19:57 | 49.68448 | 5.91259 | 31033 ft | 447 kts | 144° |
| 2026-05-07 19:57 | 49.64682 | 5.95669 | 31035 ft | 447 kts | 144° |
| 2026-05-07 19:58 | 49.59697 | 6.01493 | 31033 ft | 447 kts | 144° |
| 2026-05-07 19:58 | 49.54818 | 6.07177 | 31037 ft | 447 kts | 144° |
| 2026-05-07 19:59 | 49.49965 | 6.12819 | 31034 ft | 447 kts | 144° |
| 2026-05-07 19:59 | 49.44951 | 6.18632 | 31036 ft | 447 kts | 144° |
| 2026-05-07 20:00 | 49.39981 | 6.24377 | 31032 ft | 447 kts | 144° |
| 2026-05-07 20:00 | 49.34868 | 6.29852 | 31021 ft | 445 kts | 155° |
| 2026-05-07 20:01 | 49.31947 | 6.31552 | 31028 ft | 442 kts | 167° |
| 2026-05-07 20:01 | 49.28917 | 6.32390 | 31035 ft | 440 kts | 175° |
| 2026-05-07 20:01 | 49.22865 | 6.33425 | 31035 ft | 439 kts | 175° |
| 2026-05-07 20:02 | 49.16732 | 6.34474 | 31029 ft | 439 kts | 175° |
| 2026-05-07 20:02 | 49.10652 | 6.35554 | 31034 ft | 439 kts | 175° |
| 2026-05-07 20:03 | 49.04557 | 6.36651 | 31035 ft | 439 kts | 175° |
| 2026-05-07 20:03 | 48.98519 | 6.37740 | 31039 ft | 439 kts | 175° |
| 2026-05-07 20:04 | 48.92446 | 6.38838 | 31039 ft | 440 kts | 175° |
| 2026-05-07 20:04 | 48.86379 | 6.39931 | 31035 ft | 440 kts | 175° |
| 2026-05-07 20:05 | 48.80419 | 6.41002 | 31035 ft | 440 kts | 175° |
| 2026-05-07 20:05 | 48.74358 | 6.42089 | 31033 ft | 440 kts | 175° |
| 2026-05-07 20:06 | 48.68563 | 6.43125 | 31032 ft | 440 kts | 175° |
| 2026-05-07 20:06 | 48.62535 | 6.44199 | 31032 ft | 439 kts | 175° |
| 2026-05-07 20:07 | 48.56458 | 6.45280 | 31031 ft | 439 kts | 175° |
| 2026-05-07 20:07 | 48.50381 | 6.46359 | 31027 ft | 439 kts | 175° |
| 2026-05-07 20:08 | 48.44343 | 6.47430 | 31023 ft | 439 kts | 175° |
| 2026-05-07 20:08 | 48.38257 | 6.48505 | 31022 ft | 439 kts | 175° |
| 2026-05-07 20:09 | 48.32225 | 6.49569 | 31025 ft | 439 kts | 175° |
| 2026-05-07 20:10 | 48.23073 | 6.51177 | 31028 ft | 439 kts | 175° |
| 2026-05-07 20:10 | 48.16964 | 6.52247 | 31028 ft | 439 kts | 175° |
| 2026-05-07 20:11 | 48.10903 | 6.53306 | 31029 ft | 440 kts | 175° |
| 2026-05-07 20:11 | 48.04809 | 6.54368 | 31023 ft | 440 kts | 175° |
| 2026-05-07 20:12 | 47.98661 | 6.55439 | 31020 ft | 439 kts | 176° |
| 2026-05-07 20:12 | 47.92520 | 6.56506 | 31018 ft | 439 kts | 176° |
| 2026-05-07 20:13 | 47.86437 | 6.57560 | 31021 ft | 439 kts | 176° |
| 2026-05-07 20:13 | 47.80413 | 6.58600 | 31020 ft | 439 kts | 176° |
| 2026-05-07 20:14 | 47.74258 | 6.59662 | 31021 ft | 439 kts | 176° |
| 2026-05-07 20:14 | 47.68214 | 6.60702 | 31018 ft | 439 kts | 176° |
| 2026-05-07 20:15 | 47.62147 | 6.61741 | 30858 ft | 439 kts | 176° |
| 2026-05-07 20:15 | 47.59126 | 6.62258 | 30604 ft | 437 kts | 176° |
| 2026-05-07 20:15 | 47.56119 | 6.62774 | 30343 ft | 434 kts | 176° |
| 2026-05-07 20:15 | 47.53124 | 6.63286 | 30081 ft | 432 kts | 176° |
| 2026-05-07 20:16 | 47.50181 | 6.63791 | 29818 ft | 429 kts | 176° |
| 2026-05-07 20:16 | 47.47212 | 6.64298 | 29560 ft | 429 kts | 176° |
| 2026-05-07 20:16 | 47.44236 | 6.64805 | 29299 ft | 429 kts | 176° |
| 2026-05-07 20:16 | 47.41237 | 6.65244 | 29029 ft | 429 kts | 179° |
| 2026-05-07 20:17 | 47.38224 | 6.65434 | 28762 ft | 428 kts | 182° |
| 2026-05-07 20:17 | 47.35266 | 6.65385 | 28501 ft | 428 kts | 185° |
| 2026-05-07 20:17 | 47.32276 | 6.65263 | 28240 ft | 429 kts | 185° |
| 2026-05-07 20:17 | 47.29248 | 6.65151 | 27974 ft | 430 kts | 185° |
| 2026-05-07 20:18 | 47.26265 | 6.65042 | 27709 ft | 430 kts | 185° |
| 2026-05-07 20:18 | 47.23317 | 6.64521 | 27434 ft | 426 kts | 197° |
| 2026-05-07 20:18 | 47.20576 | 6.63037 | 27178 ft | 421 kts | 210° |
| 2026-05-07 20:18 | 47.18130 | 6.60689 | 26914 ft | 418 kts | 222° |
| 2026-05-07 20:19 | 47.15937 | 6.57865 | 26660 ft | 419 kts | 224° |
| 2026-05-07 20:19 | 47.13768 | 6.55000 | 26396 ft | 420 kts | 224° |
| 2026-05-07 20:19 | 47.11593 | 6.52125 | 26131 ft | 421 kts | 224° |
| 2026-05-07 20:19 | 47.09435 | 6.49284 | 25873 ft | 421 kts | 224° |
| 2026-05-07 20:20 | 47.07253 | 6.46420 | 25609 ft | 420 kts | 224° |
| 2026-05-07 20:20 | 47.05082 | 6.43581 | 25351 ft | 419 kts | 224° |
| 2026-05-07 20:20 | 47.02904 | 6.40737 | 25081 ft | 417 kts | 224° |
| 2026-05-07 20:20 | 47.00738 | 6.37915 | 24814 ft | 415 kts | 224° |
| 2026-05-07 20:21 | 46.98587 | 6.35116 | 24551 ft | 414 kts | 224° |
| 2026-05-07 20:21 | 46.96441 | 6.32327 | 24286 ft | 412 kts | 223° |
| 2026-05-07 20:21 | 46.94304 | 6.29553 | 24026 ft | 411 kts | 223° |
| 2026-05-07 20:21 | 46.92170 | 6.26787 | 23763 ft | 409 kts | 223° |
| 2026-05-07 20:22 | 46.90040 | 6.24025 | 23492 ft | 408 kts | 223° |
| 2026-05-07 20:22 | 46.87946 | 6.21295 | 23193 ft | 407 kts | 223° |
| 2026-05-07 20:22 | 46.85849 | 6.18559 | 22861 ft | 405 kts | 223° |
| 2026-05-07 20:22 | 46.83811 | 6.15903 | 22475 ft | 403 kts | 223° |
| 2026-05-07 20:23 | 46.81702 | 6.13155 | 21999 ft | 400 kts | 223° |
| 2026-05-07 20:23 | 46.79626 | 6.10457 | 21497 ft | 397 kts | 223° |
| 2026-05-07 20:23 | 46.77593 | 6.07817 | 20997 ft | 394 kts | 223° |
| 2026-05-07 20:23 | 46.76091 | 6.05871 | 20624 ft | 391 kts | 223° |
| 2026-05-07 20:24 | 46.74089 | 6.03279 | 20117 ft | 388 kts | 223° |
| 2026-05-07 20:24 | 46.72079 | 6.00679 | 19606 ft | 385 kts | 223° |
| 2026-05-07 20:24 | 46.70102 | 5.98124 | 19102 ft | 383 kts | 223° |
| 2026-05-07 20:24 | 46.68116 | 5.95561 | 18701 ft | 376 kts | 223° |
| 2026-05-07 20:25 | 46.66179 | 5.93064 | 18493 ft | 364 kts | 222° |
| 2026-05-07 20:25 | 46.64312 | 5.90669 | 18335 ft | 352 kts | 222° |
| 2026-05-07 20:25 | 46.62506 | 5.88355 | 18126 ft | 342 kts | 222° |
| 2026-05-07 20:25 | 46.60766 | 5.86128 | 17972 ft | 330 kts | 222° |
| 2026-05-07 20:26 | 46.58954 | 5.84176 | 17809 ft | 321 kts | 205° |
| 2026-05-07 20:26 | 46.56810 | 5.83449 | 17659 ft | 313 kts | 182° |
| 2026-05-07 20:26 | 46.54673 | 5.83996 | 17274 ft | 316 kts | 159° |
| 2026-05-07 20:26 | 46.52800 | 5.85617 | 16900 ft | 316 kts | 147° |
| 2026-05-07 20:27 | 46.50977 | 5.87505 | 16525 ft | 315 kts | 146° |
| 2026-05-07 20:27 | 46.49209 | 5.89323 | 16169 ft | 313 kts | 147° |
| 2026-05-07 20:27 | 46.47417 | 5.91141 | 15808 ft | 311 kts | 147° |
| 2026-05-07 20:27 | 46.45652 | 5.92917 | 15449 ft | 309 kts | 147° |
| 2026-05-07 20:28 | 46.43868 | 5.94708 | 15091 ft | 308 kts | 147° |
| 2026-05-07 20:28 | 46.42102 | 5.96477 | 14730 ft | 306 kts | 147° |
| 2026-05-07 20:28 | 46.40335 | 5.98245 | 14366 ft | 305 kts | 147° |
| 2026-05-07 20:28 | 46.38579 | 5.99999 | 14003 ft | 303 kts | 147° |
| 2026-05-07 20:29 | 46.36841 | 6.01724 | 13651 ft | 302 kts | 150° |
| 2026-05-07 20:29 | 46.34930 | 6.02827 | 13253 ft | 296 kts | 175° |
| 2026-05-07 20:29 | 46.32911 | 6.02581 | 12886 ft | 291 kts | 200° |
| 2026-05-07 20:29 | 46.31182 | 6.01166 | 12503 ft | 288 kts | 222° |
| 2026-05-07 20:30 | 46.29776 | 5.99117 | 12173 ft | 285 kts | 226° |
| 2026-05-07 20:30 | 46.28395 | 5.97055 | 11817 ft | 284 kts | 225° |
| 2026-05-07 20:30 | 46.27029 | 5.95040 | 11484 ft | 282 kts | 225° |
| 2026-05-07 20:30 | 46.25661 | 5.93037 | 11141 ft | 281 kts | 225° |
| 2026-05-07 20:31 | 46.24281 | 5.91024 | 10779 ft | 280 kts | 225° |
| 2026-05-07 20:31 | 46.22907 | 5.89023 | 10450 ft | 278 kts | 225° |
| 2026-05-07 20:31 | 46.21537 | 5.87028 | 10115 ft | 276 kts | 225° |
| 2026-05-07 20:31 | 46.20184 | 5.85062 | 9775 ft | 275 kts | 225° |
| 2026-05-07 20:32 | 46.18848 | 5.83120 | 9436 ft | 274 kts | 225° |
| 2026-05-07 20:32 | 46.17519 | 5.81192 | 9100 ft | 272 kts | 225° |
| 2026-05-07 20:32 | 46.16175 | 5.79242 | 8768 ft | 271 kts | 225° |
| 2026-05-07 20:32 | 46.14849 | 5.77323 | 8442 ft | 269 kts | 225° |
| 2026-05-07 20:33 | 46.13533 | 5.75418 | 8139 ft | 266 kts | 225° |
| 2026-05-07 20:33 | 46.12253 | 5.73564 | 8061 ft | 254 kts | 225° |
| 2026-05-07 20:33 | 46.10971 | 5.71949 | 7949 ft | 243 kts | 207° |
| 2026-05-07 20:33 | 46.09348 | 5.71425 | 7843 ft | 241 kts | 175° |
| 2026-05-07 20:34 | 46.07770 | 5.72177 | 7528 ft | 242 kts | 145° |
| 2026-05-07 20:34 | 46.06546 | 5.73797 | 7244 ft | 240 kts | 135° |
| 2026-05-07 20:34 | 46.05372 | 5.75505 | 6966 ft | 238 kts | 135° |
| 2026-05-07 20:34 | 46.04240 | 5.77221 | 6675 ft | 237 kts | 123° |
| 2026-05-07 20:35 | 46.03696 | 5.79441 | 6359 ft | 235 kts | 91° |
| 2026-05-07 20:35 | 46.04043 | 5.81658 | 6115 ft | 230 kts | 61° |
| 2026-05-07 20:35 | 46.04966 | 5.83477 | 6089 ft | 216 kts | 47° |
| 2026-05-07 20:35 | 46.06023 | 5.84965 | 5972 ft | 213 kts | 43° |
| 2026-05-07 20:36 | 46.07122 | 5.86435 | 5710 ft | 212 kts | 44° |
| 2026-05-07 20:36 | 46.08186 | 5.87903 | 5426 ft | 211 kts | 45° |
| 2026-05-07 20:36 | 46.09230 | 5.89395 | 5146 ft | 210 kts | 45° |
| 2026-05-07 20:36 | 46.10249 | 5.90886 | 4869 ft | 209 kts | 46° |
| 2026-05-07 20:37 | 46.11264 | 5.92389 | 4593 ft | 208 kts | 46° |
| 2026-05-07 20:37 | 46.12265 | 5.93876 | 4321 ft | 207 kts | 46° |
| 2026-05-07 20:37 | 46.13272 | 5.95371 | 4044 ft | 205 kts | 46° |
| 2026-05-07 20:37 | 46.14264 | 5.96840 | 3766 ft | 204 kts | 46° |
| 2026-05-07 20:38 | 46.15257 | 5.98308 | 3500 ft | 203 kts | 46° |
| 2026-05-07 20:38 | 46.16228 | 5.99743 | 3266 ft | 192 kts | 45° |
| 2026-05-07 20:38 | 46.17125 | 6.01064 | 3037 ft | 178 kts | 45° |
| 2026-05-07 20:38 | 46.17959 | 6.02294 | 2793 ft | 167 kts | 45° |
| 2026-05-07 20:39 | 46.18740 | 6.03444 | 2549 ft | 155 kts | 45° |
| 2026-05-07 20:39 | 46.19467 | 6.04515 | 2324 ft | 143 kts | 45° |
| 2026-05-07 20:39 | 46.20153 | 6.05527 | 2149 ft | 141 kts | 45° |
| 2026-05-07 20:39 | 46.20831 | 6.06539 | 1960 ft | 141 kts | 45° |
| 2026-05-07 20:40 | 46.21525 | 6.07548 | 1778 ft | 140 kts | 45° |
| 2026-05-07 20:40 | 46.22206 | 6.08530 | 1587 ft | 138 kts | 45° |
| 2026-05-07 20:40 | 46.22876 | 6.09514 | 1432 ft | 136 kts | 46° |
| 2026-05-07 20:40 | 46.23430 | 6.10335 | 1392 ft | 76 kts | 46° |
| 2026-05-07 20:41 | 46.23635 | 6.10635 | 1385 ft | 22 kts | 46° |
| 2026-05-07 20:41 | 46.23600 | 6.10725 | 1382 ft | 14 kts | 199° |
| 2026-05-07 20:41 | 46.23506 | 6.10688 | 1384 ft | 13 kts | 194° |
| 2026-05-07 20:41 | 46.23423 | 6.10651 | 1386 ft | 12 kts | 205° |
| 2026-05-07 20:42 | 46.23352 | 6.10564 | 1389 ft | 13 kts | 225° |
| 2026-05-07 20:42 | 46.23285 | 6.10522 | 1391 ft | 11 kts | 144° |
| 2026-05-07 20:42 | 46.23224 | 6.10606 | 1393 ft | 12 kts | 135° |
| 2026-05-07 20:42 | 46.23159 | 6.10636 | 1394 ft | 10 kts | 221° |
| 2026-05-07 20:43 | 46.23111 | 6.10567 | 1395 ft | 8 kts | 222° |
| 2026-05-07 20:43 | 46.23070 | 6.10591 | 1395 ft | 5 kts | 131° |
| 2026-05-07 20:43 | 46.23057 | 6.10611 | 1394 ft | 0 kts | 135° |
| 2026-05-07 20:43 | 46.23054 | 6.10615 | 1394 ft | 0 kts | 135° |